sensor_id;sensor_type;location;lat;lon;timestamp;pressure;altitude;pressure_sealevel;temperature;humidity
63115;BME280;49208;50.874;6.466;2023-09-19T06:01:07;100038.63;;;13.63;100.00
63115;BME280;49208;50.874;6.466;2023-09-19T06:03:35;100044.59;;;13.68;100.00
63115;BME280;49208;50.874;6.466;2023-09-19T06:06:01;100051.75;;;13.67;100.00
63115;BME280;49208;50.874;6.466;2023-09-19T06:08:27;100055.19;;;13.69;100.00
63115;BME280;49208;50.874;6.466;2023-09-19T06:10:53;100070.91;;;13.75;100.00
63115;BME280;49208;50.874;6.466;2023-09-19T06:13:18;100061.00;;;13.78;100.00
63115;BME280;49208;50.874;6.466;2023-09-19T06:15:45;100070.41;;;13.85;100.00
63115;BME280;49208;50.874;6.466;2023-09-19T06:18:11;100065.59;;;13.91;100.00
63115;BME280;49208;50.874;6.466;2023-09-19T06:20:42;100064.47;;;13.95;100.00
63115;BME280;49208;50.874;6.466;2023-09-19T06:23:09;100059.56;;;14.04;100.00
63115;BME280;49208;50.874;6.466;2023-09-19T06:25:35;100057.47;;;14.09;99.95
63115;BME280;49208;50.874;6.466;2023-09-19T06:28:00;100059.78;;;14.15;99.28
63115;BME280;49208;50.874;6.466;2023-09-19T06:30:29;100061.13;;;14.24;98.46
63115;BME280;49208;50.874;6.466;2023-09-19T06:32:59;100063.34;;;14.31;97.94
63115;BME280;49208;50.874;6.466;2023-09-19T06:35:26;100061.06;;;14.40;98.02
63115;BME280;49208;50.874;6.466;2023-09-19T06:37:52;100069.44;;;14.49;97.94
63115;BME280;49208;50.874;6.466;2023-09-19T06:40:18;100066.19;;;14.60;96.99
63115;BME280;49208;50.874;6.466;2023-09-19T06:42:50;100058.47;;;14.70;96.74
63115;BME280;49208;50.874;6.466;2023-09-19T06:45:16;100060.44;;;14.82;95.38
63115;BME280;49208;50.874;6.466;2023-09-19T06:47:50;100067.91;;;14.91;95.35
63115;BME280;49208;50.874;6.466;2023-09-19T06:50:20;100065.47;;;15.03;94.49
63115;BME280;49208;50.874;6.466;2023-09-19T06:52:48;100075.63;;;15.12;94.84
63115;BME280;49208;50.874;6.466;2023-09-19T06:55:15;100077.16;;;15.16;92.92
63115;BME280;49208;50.874;6.466;2023-09-19T06:57:42;100067.97;;;15.20;92.08
63115;BME280;49208;50.874;6.466;2023-09-19T07:00:09;100072.19;;;15.24;92.34
63115;BME280;49208;50.874;6.466;2023-09-19T07:02:43;100053.91;;;15.31;92.40
63115;BME280;49208;50.874;6.466;2023-09-19T07:05:08;100062.34;;;15.39;91.89
63115;BME280;49208;50.874;6.466;2023-09-19T07:07:34;100059.97;;;15.49;91.61
63115;BME280;49208;50.874;6.466;2023-09-19T07:10:01;100063.78;;;15.59;92.16
63115;BME280;49208;50.874;6.466;2023-09-19T07:12:27;100061.91;;;15.75;91.02
63115;BME280;49208;50.874;6.466;2023-09-19T07:14:52;100070.13;;;15.87;88.50
63115;BME280;49208;50.874;6.466;2023-09-19T07:17:18;100072.03;;;15.99;89.21
63115;BME280;49208;50.874;6.466;2023-09-19T07:19:44;100068.06;;;16.19;89.23
63115;BME280;49208;50.874;6.466;2023-09-19T07:22:10;100076.28;;;16.30;87.71
63115;BME280;49208;50.874;6.466;2023-09-19T07:24:35;100072.03;;;16.41;86.08
63115;BME280;49208;50.874;6.466;2023-09-19T07:27:02;100083.38;;;16.59;86.23
63115;BME280;49208;50.874;6.466;2023-09-19T07:29:28;100081.88;;;16.82;85.46
63115;BME280;49208;50.874;6.466;2023-09-19T07:31:53;100082.47;;;17.12;84.50
63115;BME280;49208;50.874;6.466;2023-09-19T07:34:19;100087.66;;;17.54;80.19
63115;BME280;49208;50.874;6.466;2023-09-19T07:36:47;100092.25;;;18.16;79.15
63115;BME280;49208;50.874;6.466;2023-09-19T07:39:12;100091.94;;;18.69;73.00
63115;BME280;49208;50.874;6.466;2023-09-19T07:41:38;100088.78;;;18.99;72.14
63115;BME280;49208;50.874;6.466;2023-09-19T07:44:03;100089.81;;;19.09;70.83
63115;BME280;49208;50.874;6.466;2023-09-19T07:46:29;100091.94;;;19.28;71.76
63115;BME280;49208;50.874;6.466;2023-09-19T07:48:56;100094.16;;;19.46;69.96
63115;BME280;49208;50.874;6.466;2023-09-19T07:51:22;100095.16;;;19.56;68.15
63115;BME280;49208;50.874;6.466;2023-09-19T07:53:47;100093.97;;;19.71;70.04
63115;BME280;49208;50.874;6.466;2023-09-19T07:56:13;100095.09;;;20.03;70.52
63115;BME280;49208;50.874;6.466;2023-09-19T07:58:39;100097.34;;;20.41;67.43
63115;BME280;49208;50.874;6.466;2023-09-19T08:01:10;100097.34;;;20.64;64.09
63115;BME280;49208;50.874;6.466;2023-09-19T08:03:36;100103.53;;;20.87;62.70
63115;BME280;49208;50.874;6.466;2023-09-19T08:06:07;100099.34;;;21.15;63.31
63115;BME280;49208;50.874;6.466;2023-09-19T08:08:33;100093.06;;;21.35;62.40
63115;BME280;49208;50.874;6.466;2023-09-19T08:11:03;100096.63;;;21.36;59.13
63115;BME280;49208;50.874;6.466;2023-09-19T08:13:41;100099.59;;;21.54;61.31
63115;BME280;49208;50.874;6.466;2023-09-19T08:16:11;100089.91;;;21.51;59.97
63115;BME280;49208;50.874;6.466;2023-09-19T08:18:37;100098.09;;;21.61;59.14
63115;BME280;49208;50.874;6.466;2023-09-19T08:21:05;100096.09;;;21.63;60.06
63115;BME280;49208;50.874;6.466;2023-09-19T08:23:39;100094.91;;;21.56;58.79
63115;BME280;49208;50.874;6.466;2023-09-19T08:26:05;100102.66;;;21.61;58.93
63115;BME280;49208;50.874;6.466;2023-09-19T08:28:36;100097.69;;;21.66;59.77
63115;BME280;49208;50.874;6.466;2023-09-19T08:31:06;100099.78;;;21.83;59.42
63115;BME280;49208;50.874;6.466;2023-09-19T08:33:36;100097.22;;;21.91;57.27
63115;BME280;49208;50.874;6.466;2023-09-19T08:36:02;100093.78;;;21.89;58.87
63115;BME280;49208;50.874;6.466;2023-09-19T08:38:30;100101.25;;;21.97;58.05
63115;BME280;49208;50.874;6.466;2023-09-19T08:41:04;100103.78;;;21.89;57.87
63115;BME280;49208;50.874;6.466;2023-09-19T08:43:30;100094.50;;;21.91;58.42
63115;BME280;49208;50.874;6.466;2023-09-19T08:46:05;100094.75;;;21.78;56.40
63115;BME280;49208;50.874;6.466;2023-09-19T08:48:34;100093.09;;;21.56;58.30
63115;BME280;49208;50.874;6.466;2023-09-19T08:51:26;100099.06;;;21.18;58.71
63115;BME280;49208;50.874;6.466;2023-09-19T08:56:29;100105.63;;;21.04;60.80
63115;BME280;49208;50.874;6.466;2023-09-19T08:58:57;100106.00;;;20.78;59.82
63115;BME280;49208;50.874;6.466;2023-09-19T09:01:27;100097.78;;;20.69;61.29
63115;BME280;49208;50.874;6.466;2023-09-19T09:03:53;100097.06;;;20.67;62.36
63115;BME280;49208;50.874;6.466;2023-09-19T09:06:20;100103.88;;;20.61;63.19
63115;BME280;49208;50.874;6.466;2023-09-19T09:08:46;100106.94;;;20.45;59.42
63115;BME280;49208;50.874;6.466;2023-09-19T09:11:13;100111.50;;;20.45;61.73
63115;BME280;49208;50.874;6.466;2023-09-19T09:13:39;100108.53;;;20.48;64.29
63115;BME280;49208;50.874;6.466;2023-09-19T09:16:07;100104.63;;;20.41;61.99
63115;BME280;49208;50.874;6.466;2023-09-19T09:18:33;100109.03;;;20.42;63.71
63115;BME280;49208;50.874;6.466;2023-09-19T09:20:58;100105.47;;;20.52;64.76
63115;BME280;49208;50.874;6.466;2023-09-19T09:23:23;100097.19;;;20.54;62.20
63115;BME280;49208;50.874;6.466;2023-09-19T09:25:53;100099.31;;;20.62;66.22
63115;BME280;49208;50.874;6.466;2023-09-19T09:28:24;100094.13;;;20.70;65.18
63115;BME280;49208;50.874;6.466;2023-09-19T09:30:50;100102.34;;;20.68;62.83
63115;BME280;49208;50.874;6.466;2023-09-19T09:33:16;100094.75;;;20.62;63.09
63115;BME280;49208;50.874;6.466;2023-09-19T09:35:53;100098.81;;;20.45;61.42
63115;BME280;49208;50.874;6.466;2023-09-19T09:38:20;100093.41;;;20.45;61.56
63115;BME280;49208;50.874;6.466;2023-09-19T09:40:47;100097.59;;;20.49;62.77
63115;BME280;49208;50.874;6.466;2023-09-19T09:43:34;100099.31;;;20.50;60.82
63115;BME280;49208;50.874;6.466;2023-09-19T09:46:17;100102.41;;;20.34;61.24
63115;BME280;49208;50.874;6.466;2023-09-19T09:48:47;100104.28;;;20.34;61.90
63115;BME280;49208;50.874;6.466;2023-09-19T09:51:33;100094.69;;;20.30;63.22
63115;BME280;49208;50.874;6.466;2023-09-19T09:54:12;100088.91;;;20.34;64.65
63115;BME280;49208;50.874;6.466;2023-09-19T09:56:58;100095.28;;;20.33;62.25
63115;BME280;49208;50.874;6.466;2023-09-19T09:59:43;100096.41;;;20.31;61.82
63115;BME280;49208;50.874;6.466;2023-09-19T10:02:12;100090.09;;;20.42;64.20
63115;BME280;49208;50.874;6.466;2023-09-19T10:04:39;100095.00;;;20.48;64.36
63115;BME280;49208;50.874;6.466;2023-09-19T10:07:25;100092.78;;;20.53;59.99
63115;BME280;49208;50.874;6.466;2023-09-19T10:09:54;100088.97;;;20.55;59.69
63115;BME280;49208;50.874;6.466;2023-09-19T10:12:31;100095.25;;;20.67;61.29
63115;BME280;49208;50.874;6.466;2023-09-19T10:14:58;100091.66;;;20.67;60.05
63115;BME280;49208;50.874;6.466;2023-09-19T10:17:27;100089.94;;;20.66;60.38
63115;BME280;49208;50.874;6.466;2023-09-19T10:19:56;100083.03;;;20.73;61.64
63115;BME280;49208;50.874;6.466;2023-09-19T10:22:31;100076.84;;;20.82;61.44
63115;BME280;49208;50.874;6.466;2023-09-19T10:25:00;100078.94;;;20.90;59.94
63115;BME280;49208;50.874;6.466;2023-09-19T10:27:29;100073.75;;;20.87;57.31
63115;BME280;49208;50.874;6.466;2023-09-19T10:29:56;100088.09;;;20.66;57.60
63115;BME280;49208;50.874;6.466;2023-09-19T10:32:22;100084.66;;;20.64;60.28
63115;BME280;49208;50.874;6.466;2023-09-19T10:34:49;100080.31;;;20.73;59.30
63115;BME280;49208;50.874;6.466;2023-09-19T10:37:16;100080.69;;;20.79;59.62
63115;BME280;49208;50.874;6.466;2023-09-19T10:39:46;100075.41;;;20.78;56.94
63115;BME280;49208;50.874;6.466;2023-09-19T10:42:17;100075.78;;;20.73;57.54
63115;BME280;49208;50.874;6.466;2023-09-19T10:44:45;100067.47;;;20.65;58.36
63115;BME280;49208;50.874;6.466;2023-09-19T10:47:12;100074.13;;;20.61;56.45
63115;BME280;49208;50.874;6.466;2023-09-19T10:49:45;100074.84;;;20.63;57.82
63115;BME280;49208;50.874;6.466;2023-09-19T10:52:18;100085.06;;;20.59;58.21
63115;BME280;49208;50.874;6.466;2023-09-19T10:54:48;100077.69;;;20.50;58.17
63115;BME280;49208;50.874;6.466;2023-09-19T10:57:24;100080.75;;;20.46;58.27
63115;BME280;49208;50.874;6.466;2023-09-19T11:00:08;100086.31;;;20.44;58.55
63115;BME280;49208;50.874;6.466;2023-09-19T11:03:24;100085.81;;;20.50;59.38
63115;BME280;49208;50.874;6.466;2023-09-19T11:06:09;100085.19;;;20.58;58.99
63115;BME280;49208;50.874;6.466;2023-09-19T11:11:40;100081.84;;;20.54;56.43
63115;BME280;49208;50.874;6.466;2023-09-19T11:30:40;100099.84;;;20.10;59.27
63115;BME280;49208;50.874;6.466;2023-09-19T11:36:35;100097.28;;;20.20;60.21
63115;BME280;49208;50.874;6.466;2023-09-19T11:39:01;100083.25;;;20.15;58.16
63115;BME280;49208;50.874;6.466;2023-09-19T11:41:37;100082.69;;;20.11;55.91
63115;BME280;49208;50.874;6.466;2023-09-19T11:46:35;100081.28;;;20.17;57.92
63115;BME280;49208;50.874;6.466;2023-09-19T11:49:17;100086.81;;;20.27;58.95
63115;BME280;49208;50.874;6.466;2023-09-19T11:51:50;100092.22;;;20.38;57.48
63115;BME280;49208;50.874;6.466;2023-09-19T11:54:16;100093.19;;;20.48;58.03
63115;BME280;49208;50.874;6.466;2023-09-19T11:56:49;100079.50;;;20.50;57.89
63115;BME280;49208;50.874;6.466;2023-09-19T11:59:25;100081.47;;;20.48;56.57
63115;BME280;49208;50.874;6.466;2023-09-19T12:02:04;100091.56;;;20.46;57.84
63115;BME280;49208;50.874;6.466;2023-09-19T12:04:36;100088.22;;;20.53;57.63
63115;BME280;49208;50.874;6.466;2023-09-19T12:12:19;100072.50;;;20.58;57.42
63115;BME280;49208;50.874;6.466;2023-09-19T12:14:48;100067.09;;;20.58;54.77
63115;BME280;49208;50.874;6.466;2023-09-19T12:17:14;100068.81;;;20.59;56.15
63115;BME280;49208;50.874;6.466;2023-09-19T12:19:49;100072.16;;;20.63;56.85
63115;BME280;49208;50.874;6.466;2023-09-19T12:22:16;100071.75;;;20.56;53.80
63115;BME280;49208;50.874;6.466;2023-09-19T12:24:43;100059.59;;;20.62;53.83
63115;BME280;49208;50.874;6.466;2023-09-19T12:27:09;100060.59;;;20.61;53.72
63115;BME280;49208;50.874;6.466;2023-09-19T12:29:49;100064.09;;;20.73;56.56
63115;BME280;49208;50.874;6.466;2023-09-19T12:32:15;100060.34;;;20.85;54.71
63115;BME280;49208;50.874;6.466;2023-09-19T12:34:53;100055.50;;;21.00;52.64
63115;BME280;49208;50.874;6.466;2023-09-19T12:37:19;100053.69;;;21.10;54.15
63115;BME280;49208;50.874;6.466;2023-09-19T12:39:51;100045.84;;;21.07;54.39
63115;BME280;49208;50.874;6.466;2023-09-19T12:42:22;100037.09;;;21.15;54.44
63115;BME280;49208;50.874;6.466;2023-09-19T12:44:49;100040.16;;;21.10;54.56
63115;BME280;49208;50.874;6.466;2023-09-19T12:47:20;100041.25;;;20.98;55.99
63115;BME280;49208;50.874;6.466;2023-09-19T12:50:13;100035.34;;;20.93;56.27
63115;BME280;49208;50.874;6.466;2023-09-19T12:55:20;100045.56;;;21.10;52.48
63115;BME280;49208;50.874;6.466;2023-09-19T13:00:39;100029.28;;;21.22;55.80
63115;BME280;49208;50.874;6.466;2023-09-19T13:05:53;100027.09;;;21.15;52.79
63115;BME280;49208;50.874;6.466;2023-09-19T13:08:24;100034.31;;;21.05;54.43
63115;BME280;49208;50.874;6.466;2023-09-19T13:11:07;100023.94;;;20.89;54.35
63115;BME280;49208;50.874;6.466;2023-09-19T13:13:48;100012.06;;;20.81;56.77
63115;BME280;49208;50.874;6.466;2023-09-19T13:16:19;100021.41;;;20.76;57.17
63115;BME280;49208;50.874;6.466;2023-09-19T13:18:49;100012.13;;;20.69;56.24
63115;BME280;49208;50.874;6.466;2023-09-19T13:21:17;100013.22;;;20.67;56.51
63115;BME280;49208;50.874;6.466;2023-09-19T13:23:55;100015.72;;;20.58;56.29
63115;BME280;49208;50.874;6.466;2023-09-19T13:26:27;100011.78;;;20.51;56.44
63115;BME280;49208;50.874;6.466;2023-09-19T13:28:54;100015.75;;;20.47;55.98
63115;BME280;49208;50.874;6.466;2023-09-19T13:31:20;100022.59;;;20.51;57.50
63115;BME280;49208;50.874;6.466;2023-09-19T13:33:48;100022.59;;;20.51;57.90
63115;BME280;49208;50.874;6.466;2023-09-19T13:36:14;100018.56;;;20.46;56.48
63115;BME280;49208;50.874;6.466;2023-09-19T13:38:41;100024.03;;;20.23;56.99
63115;BME280;49208;50.874;6.466;2023-09-19T13:41:08;100024.34;;;20.09;58.62
63115;BME280;49208;50.874;6.466;2023-09-19T13:43:34;100033.69;;;20.05;59.15
63115;BME280;49208;50.874;6.466;2023-09-19T13:46:00;100034.66;;;20.04;58.31
63115;BME280;49208;50.874;6.466;2023-09-19T13:48:26;100030.09;;;20.04;59.88
63115;BME280;49208;50.874;6.466;2023-09-19T13:50:51;100024.94;;;20.12;61.36
63115;BME280;49208;50.874;6.466;2023-09-19T13:53:16;100035.63;;;20.14;59.88
63115;BME280;49208;50.874;6.466;2023-09-19T13:55:42;100038.78;;;20.19;60.48
63115;BME280;49208;50.874;6.466;2023-09-19T13:58:07;100031.75;;;20.39;58.07
63115;BME280;49208;50.874;6.466;2023-09-19T14:00:36;100034.16;;;20.53;57.45
63115;BME280;49208;50.874;6.466;2023-09-19T14:03:01;100038.00;;;20.39;55.57
63115;BME280;49208;50.874;6.466;2023-09-19T14:05:27;100037.41;;;20.36;58.78
63115;BME280;49208;50.874;6.466;2023-09-19T14:07:53;100032.75;;;20.38;56.54
63115;BME280;49208;50.874;6.466;2023-09-19T14:10:21;100031.75;;;20.39;57.03
63115;BME280;49208;50.874;6.466;2023-09-19T14:12:47;100037.28;;;20.37;59.57
63115;BME280;49208;50.874;6.466;2023-09-19T14:15:13;100030.16;;;20.36;58.52
63115;BME280;49208;50.874;6.466;2023-09-19T14:17:39;100044.91;;;20.32;60.75
63115;BME280;49208;50.874;6.466;2023-09-19T14:20:08;100029.31;;;20.25;58.26
63115;BME280;49208;50.874;6.466;2023-09-19T14:22:35;100047.41;;;20.13;58.58
63115;BME280;49208;50.874;6.466;2023-09-19T14:25:02;100034.88;;;20.12;59.11
63115;BME280;49208;50.874;6.466;2023-09-19T14:27:28;100036.69;;;20.23;61.02
63115;BME280;49208;50.874;6.466;2023-09-19T14:29:53;100032.75;;;20.38;57.77
63115;BME280;49208;50.874;6.466;2023-09-19T14:32:18;100031.09;;;20.47;58.89
63115;BME280;49208;50.874;6.466;2023-09-19T14:34:44;100034.06;;;20.44;59.41
63115;BME280;49208;50.874;6.466;2023-09-19T14:37:10;100052.19;;;20.32;58.50
63115;BME280;49208;50.874;6.466;2023-09-19T14:39:40;100039.78;;;20.18;58.40
63115;BME280;49208;50.874;6.466;2023-09-19T14:42:06;100048.41;;;20.12;59.36
63115;BME280;49208;50.874;6.466;2023-09-19T14:44:31;100036.84;;;20.10;59.85
63115;BME280;49208;50.874;6.466;2023-09-19T14:46:56;100028.03;;;20.08;58.99
63115;BME280;49208;50.874;6.466;2023-09-19T14:49:22;100027.28;;;20.06;61.36
63115;BME280;49208;50.874;6.466;2023-09-19T14:51:47;100028.06;;;19.96;60.21
63115;BME280;49208;50.874;6.466;2023-09-19T14:54:13;100027.66;;;20.01;61.09
63115;BME280;49208;50.874;6.466;2023-09-19T14:56:38;100032.31;;;20.10;59.30
63115;BME280;49208;50.874;6.466;2023-09-19T14:59:05;100014.63;;;20.17;58.81
63115;BME280;49208;50.874;6.466;2023-09-19T15:01:32;100030.56;;;20.21;59.03
63115;BME280;49208;50.874;6.466;2023-09-19T15:03:58;100018.16;;;20.18;58.19
63115;BME280;49208;50.874;6.466;2023-09-19T15:06:26;100019.28;;;20.15;60.09
63115;BME280;49208;50.874;6.466;2023-09-19T15:08:51;100020.75;;;20.08;57.84
63115;BME280;49208;50.874;6.466;2023-09-19T15:11:17;100014.41;;;19.98;60.16
63115;BME280;49208;50.874;6.466;2023-09-19T15:13:44;100021.28;;;19.91;59.47
63115;BME280;49208;50.874;6.466;2023-09-19T15:16:10;100013.06;;;19.81;59.28
63115;BME280;49208;50.874;6.466;2023-09-19T15:18:41;100015.66;;;19.71;58.77
63115;BME280;49208;50.874;6.466;2023-09-19T15:21:08;100010.75;;;19.65;60.08
63115;BME280;49208;50.874;6.466;2023-09-19T15:23:34;100018.84;;;19.65;60.37
63115;BME280;49208;50.874;6.466;2023-09-19T15:26:04;100013.94;;;19.70;59.74
63115;BME280;49208;50.874;6.466;2023-09-19T15:28:30;100021.66;;;19.75;59.52
63115;BME280;49208;50.874;6.466;2023-09-19T15:31:08;100017.50;;;19.71;61.66
63115;BME280;49208;50.874;6.466;2023-09-19T15:33:34;100019.47;;;19.80;61.49
63115;BME280;49208;50.874;6.466;2023-09-19T15:36:13;100007.41;;;19.95;63.77
63115;BME280;49208;50.874;6.466;2023-09-19T15:39:01;100007.75;;;20.13;61.73
63115;BME280;49208;50.874;6.466;2023-09-19T15:41:32;100006.84;;;20.24;61.93
63115;BME280;49208;50.874;6.466;2023-09-19T15:43:59;100004.63;;;20.29;61.86
63115;BME280;49208;50.874;6.466;2023-09-19T15:46:26;100008.09;;;20.20;60.94
63115;BME280;49208;50.874;6.466;2023-09-19T15:48:53;99999.88;;;20.10;60.45
63115;BME280;49208;50.874;6.466;2023-09-19T15:51:18;99992.66;;;19.99;61.12
63115;BME280;49208;50.874;6.466;2023-09-19T15:53:48;99993.06;;;19.84;61.25
63115;BME280;49208;50.874;6.466;2023-09-19T15:56:15;99997.25;;;19.76;62.27
63115;BME280;49208;50.874;6.466;2023-09-19T15:58:43;100004.84;;;19.60;61.86
63115;BME280;49208;50.874;6.466;2023-09-19T16:01:08;99997.50;;;19.51;63.58
63115;BME280;49208;50.874;6.466;2023-09-19T16:03:38;99994.03;;;19.37;63.22
63115;BME280;49208;50.874;6.466;2023-09-19T16:06:11;100001.25;;;19.26;62.54
63115;BME280;49208;50.874;6.466;2023-09-19T16:08:40;99999.28;;;19.16;63.34
63115;BME280;49208;50.874;6.466;2023-09-19T16:11:06;99999.56;;;19.13;63.46
63115;BME280;49208;50.874;6.466;2023-09-19T16:13:33;100002.25;;;19.13;64.33
63115;BME280;49208;50.874;6.466;2023-09-19T16:15:59;99993.41;;;19.11;65.05
63115;BME280;49208;50.874;6.466;2023-09-19T16:18:24;99997.59;;;19.15;63.62
63115;BME280;49208;50.874;6.466;2023-09-19T16:20:50;99991.19;;;19.16;63.01
63115;BME280;49208;50.874;6.466;2023-09-19T16:23:15;99976.72;;;19.06;63.34
63115;BME280;49208;50.874;6.466;2023-09-19T16:25:41;99993.16;;;19.03;65.55
63115;BME280;49208;50.874;6.466;2023-09-19T16:28:06;99991.91;;;18.96;65.40
63115;BME280;49208;50.874;6.466;2023-09-19T16:30:32;99994.44;;;18.86;65.40
63115;BME280;49208;50.874;6.466;2023-09-19T16:32:59;99993.28;;;18.77;65.42
63115;BME280;49208;50.874;6.466;2023-09-19T16:35:24;100000.50;;;18.66;66.68
63115;BME280;49208;50.874;6.466;2023-09-19T16:37:50;99999.50;;;18.55;67.43
63115;BME280;49208;50.874;6.466;2023-09-19T16:40:15;100011.69;;;18.48;66.60
63115;BME280;49208;50.874;6.466;2023-09-19T16:42:40;100006.13;;;18.38;66.55
63115;BME280;49208;50.874;6.466;2023-09-19T16:45:08;100001.56;;;18.28;67.92
63115;BME280;49208;50.874;6.466;2023-09-19T16:47:35;99995.03;;;18.19;68.20
63115;BME280;49208;50.874;6.466;2023-09-19T16:50:02;100013.59;;;18.11;68.52
63115;BME280;49208;50.874;6.466;2023-09-19T16:52:28;100007.81;;;18.04;67.57
63115;BME280;49208;50.874;6.466;2023-09-19T16:54:53;100006.31;;;18.00;67.91
63115;BME280;49208;50.874;6.466;2023-09-19T16:57:19;100004.91;;;17.94;68.83
63115;BME280;49208;50.874;6.466;2023-09-19T16:59:47;100001.81;;;17.88;68.57
63115;BME280;49208;50.874;6.466;2023-09-19T17:02:14;100004.94;;;17.82;68.73
63115;BME280;49208;50.874;6.466;2023-09-19T17:04:40;100002.56;;;17.77;67.60
63115;BME280;49208;50.874;6.466;2023-09-19T17:07:05;100003.97;;;17.70;69.39
63115;BME280;49208;50.874;6.466;2023-09-19T17:09:31;100003.56;;;17.63;69.40
63115;BME280;49208;50.874;6.466;2023-09-19T17:11:57;100004.09;;;17.55;69.76
63115;BME280;49208;50.874;6.466;2023-09-19T17:14:23;99996.72;;;17.46;69.94
63115;BME280;49208;50.874;6.466;2023-09-19T17:16:49;99991.88;;;17.38;71.34
63115;BME280;49208;50.874;6.466;2023-09-19T17:19:14;99989.84;;;17.29;72.17
63115;BME280;49208;50.874;6.466;2023-09-19T17:21:40;99983.28;;;17.21;72.56
63115;BME280;49208;50.874;6.466;2023-09-19T17:24:05;99991.78;;;17.14;72.20
63115;BME280;49208;50.874;6.466;2023-09-19T17:26:33;99990.47;;;17.07;72.75
63115;BME280;49208;50.874;6.466;2023-09-19T17:28:58;99988.22;;;17.01;73.11
63115;BME280;49208;50.874;6.466;2023-09-19T17:31:25;99989.53;;;16.95;73.30
63115;BME280;49208;50.874;6.466;2023-09-19T17:33:52;99991.56;;;16.92;74.15
63115;BME280;49208;50.874;6.466;2023-09-19T17:36:20;99998.13;;;16.88;74.06
63115;BME280;49208;50.874;6.466;2023-09-19T17:38:50;100007.47;;;16.82;75.41
63115;BME280;49208;50.874;6.466;2023-09-19T17:41:16;100001.63;;;16.75;74.21
63115;BME280;49208;50.874;6.466;2023-09-19T17:43:45;100000.09;;;16.71;76.01
63115;BME280;49208;50.874;6.466;2023-09-19T17:46:18;99994.91;;;16.68;75.41
63115;BME280;49208;50.874;6.466;2023-09-19T17:48:46;99987.19;;;16.64;75.55
63115;BME280;49208;50.874;6.466;2023-09-19T17:51:13;99991.69;;;16.63;75.32
63115;BME280;49208;50.874;6.466;2023-09-19T17:53:40;99991.81;;;16.62;75.15
63115;BME280;49208;50.874;6.466;2023-09-19T17:56:06;99992.88;;;16.59;75.64
63115;BME280;49208;50.874;6.466;2023-09-19T17:58:38;99998.47;;;16.56;75.33
63115;BME280;49208;50.874;6.466;2023-09-19T18:01:13;99996.06;;;16.51;75.45
63115;BME280;49208;50.874;6.466;2023-09-19T18:03:39;100001.44;;;16.51;75.40
63115;BME280;49208;50.874;6.466;2023-09-19T18:06:08;100003.59;;;16.46;76.68
63115;BME280;49208;50.874;6.466;2023-09-19T18:08:34;100010.03;;;16.44;76.78
63115;BME280;49208;50.874;6.466;2023-09-19T18:11:03;100008.31;;;16.43;76.08
63115;BME280;49208;50.874;6.466;2023-09-19T18:13:30;100010.22;;;16.41;76.18
63115;BME280;49208;50.874;6.466;2023-09-19T18:15:56;100006.47;;;16.43;76.02
63115;BME280;49208;50.874;6.466;2023-09-19T18:18:30;100013.25;;;16.49;76.46
63115;BME280;49208;50.874;6.466;2023-09-19T18:21:00;100019.31;;;16.52;76.89
63115;BME280;49208;50.874;6.466;2023-09-19T18:23:25;100015.53;;;16.55;76.04
63115;BME280;49208;50.874;6.466;2023-09-19T18:25:55;100016.31;;;16.57;76.53
63115;BME280;49208;50.874;6.466;2023-09-19T18:28:21;100013.44;;;16.60;76.61
63115;BME280;49208;50.874;6.466;2023-09-19T18:30:46;100010.59;;;16.62;77.11
63115;BME280;49208;50.874;6.466;2023-09-19T18:33:12;100018.47;;;16.65;76.16
63115;BME280;49208;50.874;6.466;2023-09-19T18:35:37;100015.78;;;16.65;76.23
63115;BME280;49208;50.874;6.466;2023-09-19T18:38:03;100012.88;;;16.68;76.30
63115;BME280;49208;50.874;6.466;2023-09-19T18:40:28;100031.38;;;16.72;76.73
63115;BME280;49208;50.874;6.466;2023-09-19T18:42:55;100018.81;;;16.73;76.35
63115;BME280;49208;50.874;6.466;2023-09-19T18:45:20;100025.16;;;16.72;78.46
63115;BME280;49208;50.874;6.466;2023-09-19T18:47:47;100018.69;;;16.74;76.05
63115;BME280;49208;50.874;6.466;2023-09-19T18:50:13;100028.59;;;16.74;76.10
63115;BME280;49208;50.874;6.466;2023-09-19T18:52:39;100021.19;;;16.77;77.07
63115;BME280;49208;50.874;6.466;2023-09-19T18:55:07;100024.72;;;16.78;76.13
63115;BME280;49208;50.874;6.466;2023-09-19T18:57:37;100015.72;;;16.79;76.90
63115;BME280;49208;50.874;6.466;2023-09-19T19:00:07;100018.31;;;16.81;76.36
63115;BME280;49208;50.874;6.466;2023-09-19T19:02:36;100020.91;;;16.82;75.92
63115;BME280;49208;50.874;6.466;2023-09-19T19:05:04;100020.09;;;16.80;75.92
63115;BME280;49208;50.874;6.466;2023-09-19T19:07:29;100011.19;;;16.80;75.42
63115;BME280;49208;50.874;6.466;2023-09-19T19:09:55;100015.72;;;16.79;76.54
63115;BME280;49208;50.874;6.466;2023-09-19T19:12:21;100007.00;;;16.75;76.17
63115;BME280;49208;50.874;6.466;2023-09-19T19:14:48;100014.97;;;16.77;77.38
63115;BME280;49208;50.874;6.466;2023-09-19T19:17:13;100013.13;;;16.77;76.00
63115;BME280;49208;50.874;6.466;2023-09-19T19:19:41;100012.13;;;16.78;77.05
63115;BME280;49208;50.874;6.466;2023-09-19T19:22:06;100008.69;;;16.76;76.95
63115;BME280;49208;50.874;6.466;2023-09-19T19:24:32;100002.47;;;16.76;77.17
63115;BME280;49208;50.874;6.466;2023-09-19T19:26:59;100005.25;;;16.74;77.65
63115;BME280;49208;50.874;6.466;2023-09-19T19:29:24;100008.81;;;16.75;77.41
63115;BME280;49208;50.874;6.466;2023-09-19T19:31:49;100003.44;;;16.75;76.56
63115;BME280;49208;50.874;6.466;2023-09-19T19:34:17;99997.31;;;16.73;77.68
63115;BME280;49208;50.874;6.466;2023-09-19T19:36:42;99992.03;;;16.71;78.62
63115;BME280;49208;50.874;6.466;2023-09-19T19:39:09;100007.19;;;16.72;77.22